sensor_id;sensor_type;location;lat;lon;timestamp;P1;durP1;ratioP1;P2;durP2;ratioP2
19195;SDS011;9730;48.926;11.376;2022-07-06T00:00:03;5.82;;;1.92;;
19195;SDS011;9730;48.926;11.376;2022-07-06T00:02:30;3.50;;;2.05;;
19195;SDS011;9730;48.926;11.376;2022-07-06T00:04:56;3.63;;;1.85;;
19195;SDS011;9730;48.926;11.376;2022-07-06T00:07:23;2.80;;;2.25;;
19195;SDS011;9730;48.926;11.376;2022-07-06T00:09:50;5.85;;;2.40;;
19195;SDS011;9730;48.926;11.376;2022-07-06T00:12:16;3.83;;;2.10;;
19195;SDS011;9730;48.926;11.376;2022-07-06T00:14:44;2.17;;;1.95;;
19195;SDS011;9730;48.926;11.376;2022-07-06T00:17:11;2.55;;;2.20;;
19195;SDS011;9730;48.926;11.376;2022-07-06T00:19:37;2.53;;;2.28;;
19195;SDS011;9730;48.926;11.376;2022-07-06T00:22:03;2.72;;;2.28;;
19195;SDS011;9730;48.926;11.376;2022-07-06T00:24:30;3.67;;;2.28;;
19195;SDS011;9730;48.926;11.376;2022-07-06T00:26:56;3.00;;;2.05;;
19195;SDS011;9730;48.926;11.376;2022-07-06T00:29:23;3.20;;;2.10;;
19195;SDS011;9730;48.926;11.376;2022-07-06T00:31:51;3.92;;;2.15;;
19195;SDS011;9730;48.926;11.376;2022-07-06T00:34:17;3.53;;;2.17;;
19195;SDS011;9730;48.926;11.376;2022-07-06T00:36:44;7.28;;;2.40;;
19195;SDS011;9730;48.926;11.376;2022-07-06T00:39:10;4.10;;;2.42;;
19195;SDS011;9730;48.926;11.376;2022-07-06T00:41:37;1.98;;;1.85;;
19195;SDS011;9730;48.926;11.376;2022-07-06T00:44:06;2.97;;;2.40;;
19195;SDS011;9730;48.926;11.376;2022-07-06T00:46:34;3.05;;;2.20;;
19195;SDS011;9730;48.926;11.376;2022-07-06T00:49:02;2.53;;;2.33;;
19195;SDS011;9730;48.926;11.376;2022-07-06T00:51:29;2.25;;;2.08;;
19195;SDS011;9730;48.926;11.376;2022-07-06T00:53:57;4.70;;;2.50;;
19195;SDS011;9730;48.926;11.376;2022-07-06T00:56:25;2.35;;;2.15;;
19195;SDS011;9730;48.926;11.376;2022-07-06T00:58:53;3.38;;;2.13;;
19195;SDS011;9730;48.926;11.376;2022-07-06T01:01:20;3.92;;;2.22;;
19195;SDS011;9730;48.926;11.376;2022-07-06T01:03:46;2.70;;;2.45;;
19195;SDS011;9730;48.926;11.376;2022-07-06T01:06:14;5.97;;;2.53;;
19195;SDS011;9730;48.926;11.376;2022-07-06T01:08:41;5.45;;;2.78;;
19195;SDS011;9730;48.926;11.376;2022-07-06T01:11:08;4.22;;;2.50;;
19195;SDS011;9730;48.926;11.376;2022-07-06T01:13:35;3.15;;;2.22;;
19195;SDS011;9730;48.926;11.376;2022-07-06T01:16:01;5.47;;;2.20;;
19195;SDS011;9730;48.926;11.376;2022-07-06T01:18:28;2.50;;;2.30;;
19195;SDS011;9730;48.926;11.376;2022-07-06T01:23:39;2.90;;;2.70;;
19195;SDS011;9730;48.926;11.376;2022-07-06T01:26:08;3.30;;;2.50;;
19195;SDS011;9730;48.926;11.376;2022-07-06T01:31:01;3.60;;;2.63;;
19195;SDS011;9730;48.926;11.376;2022-07-06T01:33:28;3.17;;;2.60;;
19195;SDS011;9730;48.926;11.376;2022-07-06T01:35:54;3.50;;;3.08;;
19195;SDS011;9730;48.926;11.376;2022-07-06T01:38:23;6.10;;;2.72;;
19195;SDS011;9730;48.926;11.376;2022-07-06T01:40:50;2.90;;;2.50;;
19195;SDS011;9730;48.926;11.376;2022-07-06T01:43:18;3.40;;;2.50;;
19195;SDS011;9730;48.926;11.376;2022-07-06T01:45:44;3.80;;;2.30;;
19195;SDS011;9730;48.926;11.376;2022-07-06T01:48:12;4.55;;;2.70;;
19195;SDS011;9730;48.926;11.376;2022-07-06T01:50:38;3.28;;;2.53;;
19195;SDS011;9730;48.926;11.376;2022-07-06T01:53:05;2.45;;;2.25;;
19195;SDS011;9730;48.926;11.376;2022-07-06T01:55:33;3.00;;;2.30;;
19195;SDS011;9730;48.926;11.376;2022-07-06T01:57:59;3.97;;;2.50;;
19195;SDS011;9730;48.926;11.376;2022-07-06T02:00:26;3.30;;;2.60;;
19195;SDS011;9730;48.926;11.376;2022-07-06T02:02:53;3.10;;;2.80;;
19195;SDS011;9730;48.926;11.376;2022-07-06T02:05:19;2.90;;;2.65;;
19195;SDS011;9730;48.926;11.376;2022-07-06T02:07:46;5.35;;;2.85;;
19195;SDS011;9730;48.926;11.376;2022-07-06T02:10:13;4.72;;;2.90;;
19195;SDS011;9730;48.926;11.376;2022-07-06T02:12:42;3.15;;;2.85;;
19195;SDS011;9730;48.926;11.376;2022-07-06T02:15:09;5.43;;;2.72;;
19195;SDS011;9730;48.926;11.376;2022-07-06T02:17:37;3.67;;;3.10;;
19195;SDS011;9730;48.926;11.376;2022-07-06T02:20:05;5.78;;;4.50;;
19195;SDS011;9730;48.926;11.376;2022-07-06T02:22:32;6.30;;;4.45;;
19195;SDS011;9730;48.926;11.376;2022-07-06T02:24:59;6.22;;;3.90;;
19195;SDS011;9730;48.926;11.376;2022-07-06T02:27:26;3.53;;;2.60;;
19195;SDS011;9730;48.926;11.376;2022-07-06T02:29:54;3.42;;;2.70;;
19195;SDS011;9730;48.926;11.376;2022-07-06T02:32:21;4.07;;;3.17;;
19195;SDS011;9730;48.926;11.376;2022-07-06T02:34:49;3.45;;;2.80;;
19195;SDS011;9730;48.926;11.376;2022-07-06T02:37:16;3.45;;;3.10;;
19195;SDS011;9730;48.926;11.376;2022-07-06T02:39:42;4.63;;;3.50;;
19195;SDS011;9730;48.926;11.376;2022-07-06T02:42:09;4.07;;;2.67;;
19195;SDS011;9730;48.926;11.376;2022-07-06T02:44:36;3.80;;;2.80;;
19195;SDS011;9730;48.926;11.376;2022-07-06T02:47:04;3.75;;;3.10;;
19195;SDS011;9730;48.926;11.376;2022-07-06T02:49:31;4.82;;;2.55;;
19195;SDS011;9730;48.926;11.376;2022-07-06T02:51:58;4.18;;;3.05;;
19195;SDS011;9730;48.926;11.376;2022-07-06T02:54:25;3.67;;;2.72;;
19195;SDS011;9730;48.926;11.376;2022-07-06T02:56:52;3.42;;;2.80;;
19195;SDS011;9730;48.926;11.376;2022-07-06T02:59:19;2.88;;;2.50;;
19195;SDS011;9730;48.926;11.376;2022-07-06T03:01:46;5.80;;;2.85;;
19195;SDS011;9730;48.926;11.376;2022-07-06T03:04:14;5.75;;;3.03;;
19195;SDS011;9730;48.926;11.376;2022-07-06T03:06:41;4.35;;;3.00;;
19195;SDS011;9730;48.926;11.376;2022-07-06T03:09:08;5.18;;;2.92;;
19195;SDS011;9730;48.926;11.376;2022-07-06T03:11:36;6.03;;;2.90;;
19195;SDS011;9730;48.926;11.376;2022-07-06T03:14:03;7.40;;;3.53;;
19195;SDS011;9730;48.926;11.376;2022-07-06T03:16:33;3.13;;;2.83;;
19195;SDS011;9730;48.926;11.376;2022-07-06T03:19:00;3.50;;;3.15;;
19195;SDS011;9730;48.926;11.376;2022-07-06T03:21:28;3.65;;;3.00;;
19195;SDS011;9730;48.926;11.376;2022-07-06T03:23:55;3.50;;;2.67;;
19195;SDS011;9730;48.926;11.376;2022-07-06T03:26:23;5.25;;;2.72;;
19195;SDS011;9730;48.926;11.376;2022-07-06T03:28:50;5.47;;;2.97;;
19195;SDS011;9730;48.926;11.376;2022-07-06T03:31:17;3.38;;;2.60;;
19195;SDS011;9730;48.926;11.376;2022-07-06T03:33:45;3.42;;;2.90;;
19195;SDS011;9730;48.926;11.376;2022-07-06T03:36:12;3.05;;;2.75;;
19195;SDS011;9730;48.926;11.376;2022-07-06T03:38:40;4.78;;;3.30;;
19195;SDS011;9730;48.926;11.376;2022-07-06T03:41:07;4.85;;;3.03;;
19195;SDS011;9730;48.926;11.376;2022-07-06T03:43:34;3.75;;;3.40;;
19195;SDS011;9730;48.926;11.376;2022-07-06T03:46:02;5.10;;;3.10;;
19195;SDS011;9730;48.926;11.376;2022-07-06T03:48:30;4.25;;;3.00;;
19195;SDS011;9730;48.926;11.376;2022-07-06T03:50:56;6.47;;;3.50;;
19195;SDS011;9730;48.926;11.376;2022-07-06T03:53:23;15.13;;;3.20;;
19195;SDS011;9730;48.926;11.376;2022-07-06T03:55:52;7.13;;;3.60;;
19195;SDS011;9730;48.926;11.376;2022-07-06T03:58:33;7.53;;;3.72;;
19195;SDS011;9730;48.926;11.376;2022-07-06T04:01:00;7.22;;;3.95;;
19195;SDS011;9730;48.926;11.376;2022-07-06T04:03:27;8.18;;;3.78;;
19195;SDS011;9730;48.926;11.376;2022-07-06T04:05:53;7.50;;;3.65;;
19195;SDS011;9730;48.926;11.376;2022-07-06T04:08:20;6.80;;;3.42;;
19195;SDS011;9730;48.926;11.376;2022-07-06T04:10:53;5.30;;;3.38;;
19195;SDS011;9730;48.926;11.376;2022-07-06T04:13:21;4.75;;;3.20;;
19195;SDS011;9730;48.926;11.376;2022-07-06T04:15:50;2.97;;;2.75;;
19195;SDS011;9730;48.926;11.376;2022-07-06T04:18:17;3.83;;;3.30;;
19195;SDS011;9730;48.926;11.376;2022-07-06T04:20:49;5.20;;;2.72;;
19195;SDS011;9730;48.926;11.376;2022-07-06T04:23:17;3.45;;;2.83;;
19195;SDS011;9730;48.926;11.376;2022-07-06T04:25:43;10.98;;;3.72;;
19195;SDS011;9730;48.926;11.376;2022-07-06T04:28:12;5.55;;;2.78;;
19195;SDS011;9730;48.926;11.376;2022-07-06T04:30:38;3.63;;;2.70;;
19195;SDS011;9730;48.926;11.376;2022-07-06T04:33:09;5.65;;;3.30;;
19195;SDS011;9730;48.926;11.376;2022-07-06T04:35:37;6.43;;;3.05;;
19195;SDS011;9730;48.926;11.376;2022-07-06T04:38:03;4.50;;;3.47;;
19195;SDS011;9730;48.926;11.376;2022-07-06T04:40:30;3.53;;;2.90;;
19195;SDS011;9730;48.926;11.376;2022-07-06T04:43:01;5.00;;;3.78;;
19195;SDS011;9730;48.926;11.376;2022-07-06T04:45:30;5.57;;;2.58;;
19195;SDS011;9730;48.926;11.376;2022-07-06T04:47:57;4.20;;;3.08;;
19195;SDS011;9730;48.926;11.376;2022-07-06T04:50:25;5.57;;;3.15;;
19195;SDS011;9730;48.926;11.376;2022-07-06T04:52:54;5.72;;;2.75;;
19195;SDS011;9730;48.926;11.376;2022-07-06T04:55:21;3.35;;;3.05;;
19195;SDS011;9730;48.926;11.376;2022-07-06T04:57:49;3.25;;;2.72;;
19195;SDS011;9730;48.926;11.376;2022-07-06T05:00:17;4.70;;;2.83;;
19195;SDS011;9730;48.926;11.376;2022-07-06T05:02:47;4.45;;;2.75;;
19195;SDS011;9730;48.926;11.376;2022-07-06T05:05:14;10.02;;;4.63;;
19195;SDS011;9730;48.926;11.376;2022-07-06T05:07:41;3.97;;;3.13;;
19195;SDS011;9730;48.926;11.376;2022-07-06T05:10:08;5.03;;;3.30;;
19195;SDS011;9730;48.926;11.376;2022-07-06T05:12:38;3.90;;;2.85;;
19195;SDS011;9730;48.926;11.376;2022-07-06T05:15:05;3.70;;;3.28;;
19195;SDS011;9730;48.926;11.376;2022-07-06T05:17:33;6.55;;;4.15;;
19195;SDS011;9730;48.926;11.376;2022-07-06T05:20:02;4.97;;;4.10;;
19195;SDS011;9730;48.926;11.376;2022-07-06T05:22:32;3.72;;;3.25;;
19195;SDS011;9730;48.926;11.376;2022-07-06T05:24:59;7.63;;;4.10;;
19195;SDS011;9730;48.926;11.376;2022-07-06T05:27:27;5.40;;;2.75;;
19195;SDS011;9730;48.926;11.376;2022-07-06T05:29:53;5.10;;;3.08;;
19195;SDS011;9730;48.926;11.376;2022-07-06T05:32:20;3.90;;;3.00;;
19195;SDS011;9730;48.926;11.376;2022-07-06T05:34:47;5.78;;;2.88;;
19195;SDS011;9730;48.926;11.376;2022-07-06T05:37:15;5.38;;;3.15;;
19195;SDS011;9730;48.926;11.376;2022-07-06T05:39:41;4.30;;;3.42;;
19195;SDS011;9730;48.926;11.376;2022-07-06T05:42:11;4.75;;;3.28;;
19195;SDS011;9730;48.926;11.376;2022-07-06T05:44:38;6.60;;;4.22;;
19195;SDS011;9730;48.926;11.376;2022-07-06T05:47:05;8.88;;;3.55;;
19195;SDS011;9730;48.926;11.376;2022-07-06T05:49:51;3.47;;;3.00;;
19195;SDS011;9730;48.926;11.376;2022-07-06T05:52:38;3.05;;;2.75;;
19195;SDS011;9730;48.926;11.376;2022-07-06T05:55:06;4.38;;;3.05;;
19195;SDS011;9730;48.926;11.376;2022-07-06T05:57:33;5.32;;;2.78;;
19195;SDS011;9730;48.926;11.376;2022-07-06T06:00:00;4.70;;;3.00;;
19195;SDS011;9730;48.926;11.376;2022-07-06T06:02:26;4.53;;;3.10;;
19195;SDS011;9730;48.926;11.376;2022-07-06T06:05:02;3.50;;;2.55;;
19195;SDS011;9730;48.926;11.376;2022-07-06T06:07:29;3.25;;;2.67;;
19195;SDS011;9730;48.926;11.376;2022-07-06T06:09:57;3.83;;;2.55;;
19195;SDS011;9730;48.926;11.376;2022-07-06T06:14:51;4.18;;;3.00;;
19195;SDS011;9730;48.926;11.376;2022-07-06T06:17:17;3.33;;;2.45;;
19195;SDS011;9730;48.926;11.376;2022-07-06T06:19:44;3.80;;;2.90;;
19195;SDS011;9730;48.926;11.376;2022-07-06T06:22:10;4.80;;;2.47;;
19195;SDS011;9730;48.926;11.376;2022-07-06T06:24:37;3.13;;;2.80;;
19195;SDS011;9730;48.926;11.376;2022-07-06T06:27:04;4.78;;;2.40;;
19195;SDS011;9730;48.926;11.376;2022-07-06T06:29:31;2.92;;;2.30;;
19195;SDS011;9730;48.926;11.376;2022-07-06T06:31:58;2.58;;;2.38;;
19195;SDS011;9730;48.926;11.376;2022-07-06T06:34:25;2.70;;;2.40;;
19195;SDS011;9730;48.926;11.376;2022-07-06T06:36:51;6.05;;;2.55;;
19195;SDS011;9730;48.926;11.376;2022-07-06T06:39:18;4.40;;;2.72;;
19195;SDS011;9730;48.926;11.376;2022-07-06T06:41:44;2.78;;;2.42;;
19195;SDS011;9730;48.926;11.376;2022-07-06T06:44:12;3.65;;;2.15;;
19195;SDS011;9730;48.926;11.376;2022-07-06T06:46:39;5.03;;;2.17;;
19195;SDS011;9730;48.926;11.376;2022-07-06T06:49:06;4.72;;;2.17;;
19195;SDS011;9730;48.926;11.376;2022-07-06T06:51:33;4.75;;;2.30;;
19195;SDS011;9730;48.926;11.376;2022-07-06T06:53:59;2.85;;;2.15;;
19195;SDS011;9730;48.926;11.376;2022-07-06T06:56:26;4.10;;;2.30;;
19195;SDS011;9730;48.926;11.376;2022-07-06T06:58:52;5.03;;;2.53;;
19195;SDS011;9730;48.926;11.376;2022-07-06T07:01:20;3.65;;;2.58;;
19195;SDS011;9730;48.926;11.376;2022-07-06T07:03:47;6.35;;;2.63;;
19195;SDS011;9730;48.926;11.376;2022-07-06T07:06:14;3.63;;;2.50;;
19195;SDS011;9730;48.926;11.376;2022-07-06T07:08:40;2.30;;;2.10;;
19195;SDS011;9730;48.926;11.376;2022-07-06T07:11:07;4.82;;;2.47;;
19195;SDS011;9730;48.926;11.376;2022-07-06T07:13:33;3.53;;;2.22;;
19195;SDS011;9730;48.926;11.376;2022-07-06T07:16:00;4.35;;;2.45;;
19195;SDS011;9730;48.926;11.376;2022-07-06T07:18:28;4.47;;;2.20;;
19195;SDS011;9730;48.926;11.376;2022-07-06T07:20:54;2.75;;;2.05;;
19195;SDS011;9730;48.926;11.376;2022-07-06T07:23:21;2.67;;;2.25;;
19195;SDS011;9730;48.926;11.376;2022-07-06T07:25:47;3.97;;;2.20;;
19195;SDS011;9730;48.926;11.376;2022-07-06T07:28:14;6.40;;;2.60;;
19195;SDS011;9730;48.926;11.376;2022-07-06T07:30:40;7.10;;;2.42;;
19195;SDS011;9730;48.926;11.376;2022-07-06T07:33:07;2.63;;;2.20;;
19195;SDS011;9730;48.926;11.376;2022-07-06T07:35:35;6.35;;;2.50;;
19195;SDS011;9730;48.926;11.376;2022-07-06T07:38:01;3.25;;;2.15;;
19195;SDS011;9730;48.926;11.376;2022-07-06T07:40:28;3.65;;;2.08;;
19195;SDS011;9730;48.926;11.376;2022-07-06T07:42:54;8.10;;;2.20;;
19195;SDS011;9730;48.926;11.376;2022-07-06T07:45:21;6.47;;;2.50;;
19195;SDS011;9730;48.926;11.376;2022-07-06T07:47:48;3.35;;;2.60;;
19195;SDS011;9730;48.926;11.376;2022-07-06T07:50:14;4.93;;;2.45;;
19195;SDS011;9730;48.926;11.376;2022-07-06T07:52:42;5.22;;;2.38;;
19195;SDS011;9730;48.926;11.376;2022-07-06T07:55:09;3.90;;;2.50;;
19195;SDS011;9730;48.926;11.376;2022-07-06T07:57:36;6.30;;;3.25;;
19195;SDS011;9730;48.926;11.376;2022-07-06T08:00:03;5.32;;;2.67;;
19195;SDS011;9730;48.926;11.376;2022-07-06T08:02:36;3.47;;;2.13;;
19195;SDS011;9730;48.926;11.376;2022-07-06T08:05:03;4.10;;;2.33;;
19195;SDS011;9730;48.926;11.376;2022-07-06T08:07:30;6.75;;;2.30;;
19195;SDS011;9730;48.926;11.376;2022-07-06T08:09:58;2.95;;;2.03;;
19195;SDS011;9730;48.926;11.376;2022-07-06T08:12:24;2.58;;;1.83;;
19195;SDS011;9730;48.926;11.376;2022-07-06T08:14:51;3.47;;;2.00;;
19195;SDS011;9730;48.926;11.376;2022-07-06T08:17:17;4.40;;;2.00;;
19195;SDS011;9730;48.926;11.376;2022-07-06T08:19:44;4.82;;;2.20;;
19195;SDS011;9730;48.926;11.376;2022-07-06T08:22:10;7.28;;;2.35;;
19195;SDS011;9730;48.926;11.376;2022-07-06T08:24:37;3.80;;;1.90;;
19195;SDS011;9730;48.926;11.376;2022-07-06T08:27:05;2.40;;;1.70;;
19195;SDS011;9730;48.926;11.376;2022-07-06T08:29:31;6.13;;;2.20;;
19195;SDS011;9730;48.926;11.376;2022-07-06T08:31:58;5.78;;;1.85;;
19195;SDS011;9730;48.926;11.376;2022-07-06T08:34:24;5.40;;;2.20;;
19195;SDS011;9730;48.926;11.376;2022-07-06T08:36:51;2.42;;;2.00;;
19195;SDS011;9730;48.926;11.376;2022-07-06T08:39:18;4.03;;;1.73;;
19195;SDS011;9730;48.926;11.376;2022-07-06T08:41:44;3.28;;;1.92;;
19195;SDS011;9730;48.926;11.376;2022-07-06T08:46:41;5.10;;;1.65;;
19195;SDS011;9730;48.926;11.376;2022-07-06T08:49:07;8.15;;;2.13;;
19195;SDS011;9730;48.926;11.376;2022-07-06T08:51:38;5.32;;;1.92;;
19195;SDS011;9730;48.926;11.376;2022-07-06T08:54:05;4.43;;;2.33;;
19195;SDS011;9730;48.926;11.376;2022-07-06T08:56:32;3.15;;;1.65;;
19195;SDS011;9730;48.926;11.376;2022-07-06T08:58:58;2.60;;;1.55;;
19195;SDS011;9730;48.926;11.376;2022-07-06T09:01:27;3.87;;;2.23;;
19195;SDS011;9730;48.926;11.376;2022-07-06T09:03:54;1.73;;;1.40;;
19195;SDS011;9730;48.926;11.376;2022-07-06T09:06:23;11.60;;;1.90;;
19195;SDS011;9730;48.926;11.376;2022-07-06T09:08:52;5.32;;;1.98;;
19195;SDS011;9730;48.926;11.376;2022-07-06T09:11:19;2.55;;;1.73;;
19195;SDS011;9730;48.926;11.376;2022-07-06T09:13:47;6.68;;;2.30;;
19195;SDS011;9730;48.926;11.376;2022-07-06T09:16:14;3.22;;;1.80;;
19195;SDS011;9730;48.926;11.376;2022-07-06T09:18:44;6.07;;;1.70;;
19195;SDS011;9730;48.926;11.376;2022-07-06T09:21:11;6.80;;;1.73;;
19195;SDS011;9730;48.926;11.376;2022-07-06T09:23:51;2.60;;;1.80;;
19195;SDS011;9730;48.926;11.376;2022-07-06T09:26:19;2.75;;;1.80;;
19195;SDS011;9730;48.926;11.376;2022-07-06T09:28:46;2.35;;;1.67;;
19195;SDS011;9730;48.926;11.376;2022-07-06T09:31:12;4.00;;;1.60;;
19195;SDS011;9730;48.926;11.376;2022-07-06T09:33:39;1.55;;;1.45;;
19195;SDS011;9730;48.926;11.376;2022-07-06T09:39:19;4.05;;;1.52;;
19195;SDS011;9730;48.926;11.376;2022-07-06T09:41:49;1.85;;;1.40;;
19195;SDS011;9730;48.926;11.376;2022-07-06T09:44:23;4.20;;;1.75;;
19195;SDS011;9730;48.926;11.376;2022-07-06T09:46:52;2.30;;;1.42;;
19195;SDS011;9730;48.926;11.376;2022-07-06T09:49:20;3.75;;;1.90;;
19195;SDS011;9730;48.926;11.376;2022-07-06T09:51:48;5.35;;;1.50;;
19195;SDS011;9730;48.926;11.376;2022-07-06T09:56:42;10.77;;;1.90;;
19195;SDS011;9730;48.926;11.376;2022-07-06T09:59:14;2.47;;;1.75;;
19195;SDS011;9730;48.926;11.376;2022-07-06T10:01:42;3.30;;;1.27;;
19195;SDS011;9730;48.926;11.376;2022-07-06T10:04:09;6.43;;;1.45;;
19195;SDS011;9730;48.926;11.376;2022-07-06T10:06:39;4.88;;;1.55;;
19195;SDS011;9730;48.926;11.376;2022-07-06T10:11:33;6.68;;;1.73;;
19195;SDS011;9730;48.926;11.376;2022-07-06T10:14:03;1.63;;;1.30;;
19195;SDS011;9730;48.926;11.376;2022-07-06T10:16:31;3.75;;;2.03;;
19195;SDS011;9730;48.926;11.376;2022-07-06T10:19:00;2.00;;;1.30;;
19195;SDS011;9730;48.926;11.376;2022-07-06T10:21:30;1.75;;;1.48;;
19195;SDS011;9730;48.926;11.376;2022-07-06T10:23:58;4.28;;;1.65;;
19195;SDS011;9730;48.926;11.376;2022-07-06T10:26:26;1.90;;;1.63;;
19195;SDS011;9730;48.926;11.376;2022-07-06T10:28:53;5.72;;;1.70;;
19195;SDS011;9730;48.926;11.376;2022-07-06T10:31:20;4.90;;;1.57;;
19195;SDS011;9730;48.926;11.376;2022-07-06T10:36:15;4.63;;;1.30;;
19195;SDS011;9730;48.926;11.376;2022-07-06T10:38:42;3.80;;;1.80;;
19195;SDS011;9730;48.926;11.376;2022-07-06T10:41:16;2.92;;;1.60;;
19195;SDS011;9730;48.926;11.376;2022-07-06T10:43:42;2.45;;;1.70;;
19195;SDS011;9730;48.926;11.376;2022-07-06T10:46:10;5.68;;;1.65;;
19195;SDS011;9730;48.926;11.376;2022-07-06T10:48:39;1.80;;;1.40;;
19195;SDS011;9730;48.926;11.376;2022-07-06T10:53:34;1.98;;;1.20;;
19195;SDS011;9730;48.926;11.376;2022-07-06T10:58:37;2.70;;;1.57;;
19195;SDS011;9730;48.926;11.376;2022-07-06T11:01:08;5.10;;;1.65;;
19195;SDS011;9730;48.926;11.376;2022-07-06T11:03:41;3.88;;;1.67;;
19195;SDS011;9730;48.926;11.376;2022-07-06T11:06:10;2.42;;;1.77;;
19195;SDS011;9730;48.926;11.376;2022-07-06T11:08:44;4.97;;;1.90;;
19195;SDS011;9730;48.926;11.376;2022-07-06T11:11:22;5.20;;;1.45;;
19195;SDS011;9730;48.926;11.376;2022-07-06T11:13:58;2.50;;;1.38;;
19195;SDS011;9730;48.926;11.376;2022-07-06T11:16:26;2.95;;;1.88;;
19195;SDS011;9730;48.926;11.376;2022-07-06T11:19:05;4.03;;;1.88;;
19195;SDS011;9730;48.926;11.376;2022-07-06T11:24:01;7.13;;;2.20;;
19195;SDS011;9730;48.926;11.376;2022-07-06T11:26:30;2.30;;;1.48;;
19195;SDS011;9730;48.926;11.376;2022-07-06T11:28:59;5.38;;;2.30;;
19195;SDS011;9730;48.926;11.376;2022-07-06T11:31:26;2.78;;;1.58;;
19195;SDS011;9730;48.926;11.376;2022-07-06T11:33:52;2.95;;;1.17;;
19195;SDS011;9730;48.926;11.376;2022-07-06T11:36:19;3.83;;;1.15;;
19195;SDS011;9730;48.926;11.376;2022-07-06T11:41:14;5.47;;;1.23;;
19195;SDS011;9730;48.926;11.376;2022-07-06T11:43:42;3.50;;;1.55;;
19195;SDS011;9730;48.926;11.376;2022-07-06T11:46:19;8.93;;;1.58;;
19195;SDS011;9730;48.926;11.376;2022-07-06T11:48:46;4.70;;;1.42;;
19195;SDS011;9730;48.926;11.376;2022-07-06T11:51:13;2.30;;;1.58;;
19195;SDS011;9730;48.926;11.376;2022-07-06T11:53:41;2.13;;;1.70;;
19195;SDS011;9730;48.926;11.376;2022-07-06T11:56:09;4.50;;;1.70;;
19195;SDS011;9730;48.926;11.376;2022-07-06T11:58:36;8.95;;;1.42;;
19195;SDS011;9730;48.926;11.376;2022-07-06T12:01:06;2.95;;;2.00;;
19195;SDS011;9730;48.926;11.376;2022-07-06T12:03:35;4.32;;;1.88;;
19195;SDS011;9730;48.926;11.376;2022-07-06T12:06:02;5.00;;;2.13;;
19195;SDS011;9730;48.926;11.376;2022-07-06T12:08:29;1.85;;;1.40;;
19195;SDS011;9730;48.926;11.376;2022-07-06T12:10:55;3.58;;;1.63;;
19195;SDS011;9730;48.926;11.376;2022-07-06T12:13:22;9.00;;;2.05;;
19195;SDS011;9730;48.926;11.376;2022-07-06T12:15:49;2.55;;;1.25;;
19195;SDS011;9730;48.926;11.376;2022-07-06T12:18:16;2.67;;;1.58;;
19195;SDS011;9730;48.926;11.376;2022-07-06T12:20:44;1.63;;;1.42;;
19195;SDS011;9730;48.926;11.376;2022-07-06T12:23:11;5.82;;;2.15;;
19195;SDS011;9730;48.926;11.376;2022-07-06T12:25:37;2.97;;;1.90;;
19195;SDS011;9730;48.926;11.376;2022-07-06T12:28:04;2.95;;;1.45;;
19195;SDS011;9730;48.926;11.376;2022-07-06T12:30:31;1.48;;;1.30;;
19195;SDS011;9730;48.926;11.376;2022-07-06T12:33:11;4.80;;;1.70;;
19195;SDS011;9730;48.926;11.376;2022-07-06T12:35:39;3.78;;;1.45;;
19195;SDS011;9730;48.926;11.376;2022-07-06T12:38:07;4.20;;;1.85;;
19195;SDS011;9730;48.926;11.376;2022-07-06T12:40:35;2.00;;;1.75;;
19195;SDS011;9730;48.926;11.376;2022-07-06T12:43:02;3.63;;;1.70;;
19195;SDS011;9730;48.926;11.376;2022-07-06T12:45:29;2.22;;;1.40;;
19195;SDS011;9730;48.926;11.376;2022-07-06T12:47:56;3.73;;;1.30;;
19195;SDS011;9730;48.926;11.376;2022-07-06T12:50:30;4.45;;;1.48;;
19195;SDS011;9730;48.926;11.376;2022-07-06T12:52:58;5.43;;;2.08;;
19195;SDS011;9730;48.926;11.376;2022-07-06T12:55:27;3.42;;;1.90;;
19195;SDS011;9730;48.926;11.376;2022-07-06T12:57:54;3.05;;;1.38;;
19195;SDS011;9730;48.926;11.376;2022-07-06T13:00:21;2.58;;;1.48;;
19195;SDS011;9730;48.926;11.376;2022-07-06T13:02:49;3.63;;;1.50;;
19195;SDS011;9730;48.926;11.376;2022-07-06T13:05:21;3.00;;;1.70;;
19195;SDS011;9730;48.926;11.376;2022-07-06T13:07:52;2.65;;;1.70;;
19195;SDS011;9730;48.926;11.376;2022-07-06T13:10:20;2.22;;;1.60;;
19195;SDS011;9730;48.926;11.376;2022-07-06T13:12:49;2.70;;;1.55;;
19195;SDS011;9730;48.926;11.376;2022-07-06T13:17:43;1.70;;;1.27;;
19195;SDS011;9730;48.926;11.376;2022-07-06T13:20:10;5.72;;;1.67;;
19195;SDS011;9730;48.926;11.376;2022-07-06T13:22:39;2.75;;;1.40;;
19195;SDS011;9730;48.926;11.376;2022-07-06T13:25:06;2.80;;;1.60;;
19195;SDS011;9730;48.926;11.376;2022-07-06T13:27:33;2.13;;;1.40;;
19195;SDS011;9730;48.926;11.376;2022-07-06T13:30:01;2.38;;;1.30;;
19195;SDS011;9730;48.926;11.376;2022-07-06T13:32:28;4.43;;;1.83;;
19195;SDS011;9730;48.926;11.376;2022-07-06T13:34:54;2.85;;;2.22;;
19195;SDS011;9730;48.926;11.376;2022-07-06T13:37:21;3.78;;;1.73;;
19195;SDS011;9730;48.926;11.376;2022-07-06T13:39:48;4.05;;;1.35;;
19195;SDS011;9730;48.926;11.376;2022-07-06T13:42:14;1.77;;;1.58;;
19195;SDS011;9730;48.926;11.376;2022-07-06T13:44:41;4.78;;;1.50;;
19195;SDS011;9730;48.926;11.376;2022-07-06T13:47:08;2.38;;;1.63;;
19195;SDS011;9730;48.926;11.376;2022-07-06T13:52:02;2.47;;;1.60;;
19195;SDS011;9730;48.926;11.376;2022-07-06T13:54:29;2.83;;;1.50;;
19195;SDS011;9730;48.926;11.376;2022-07-06T13:56:56;5.55;;;2.10;;
19195;SDS011;9730;48.926;11.376;2022-07-06T13:59:22;3.97;;;1.40;;
19195;SDS011;9730;48.926;11.376;2022-07-06T14:01:49;7.05;;;1.73;;
19195;SDS011;9730;48.926;11.376;2022-07-06T14:04:17;4.15;;;1.67;;
19195;SDS011;9730;48.926;11.376;2022-07-06T14:06:43;3.50;;;1.75;;
19195;SDS011;9730;48.926;11.376;2022-07-06T14:09:10;4.97;;;2.30;;
19195;SDS011;9730;48.926;11.376;2022-07-06T14:11:37;5.78;;;1.85;;
19195;SDS011;9730;48.926;11.376;2022-07-06T14:14:03;3.70;;;1.65;;
19195;SDS011;9730;48.926;11.376;2022-07-06T14:16:31;4.55;;;1.75;;
19195;SDS011;9730;48.926;11.376;2022-07-06T14:19:00;5.70;;;1.35;;
19195;SDS011;9730;48.926;11.376;2022-07-06T14:21:28;2.63;;;1.48;;
19195;SDS011;9730;48.926;11.376;2022-07-06T14:23:54;3.45;;;1.67;;
19195;SDS011;9730;48.926;11.376;2022-07-06T14:26:21;2.47;;;1.60;;
19195;SDS011;9730;48.926;11.376;2022-07-06T14:28:47;3.95;;;1.50;;
19195;SDS011;9730;48.926;11.376;2022-07-06T14:31:14;4.85;;;2.03;;
19195;SDS011;9730;48.926;11.376;2022-07-06T14:33:40;2.47;;;2.00;;
19195;SDS011;9730;48.926;11.376;2022-07-06T14:36:07;3.65;;;1.65;;
19195;SDS011;9730;48.926;11.376;2022-07-06T14:38:34;4.40;;;1.75;;
19195;SDS011;9730;48.926;11.376;2022-07-06T14:41:01;4.20;;;1.65;;
19195;SDS011;9730;48.926;11.376;2022-07-06T14:43:27;2.55;;;2.20;;
19195;SDS011;9730;48.926;11.376;2022-07-06T14:45:54;3.08;;;1.40;;
19195;SDS011;9730;48.926;11.376;2022-07-06T14:48:21;1.90;;;1.70;;
19195;SDS011;9730;48.926;11.376;2022-07-06T14:50:47;2.53;;;1.58;;
19195;SDS011;9730;48.926;11.376;2022-07-06T14:53:13;3.25;;;2.00;;
19195;SDS011;9730;48.926;11.376;2022-07-06T14:55:41;2.65;;;1.50;;
19195;SDS011;9730;48.926;11.376;2022-07-06T14:58:08;1.80;;;1.65;;
19195;SDS011;9730;48.926;11.376;2022-07-06T15:00:34;3.47;;;1.42;;
19195;SDS011;9730;48.926;11.376;2022-07-06T15:03:01;4.97;;;1.73;;
19195;SDS011;9730;48.926;11.376;2022-07-06T15:05:28;1.38;;;1.27;;
19195;SDS011;9730;48.926;11.376;2022-07-06T15:07:54;5.00;;;1.70;;
19195;SDS011;9730;48.926;11.376;2022-07-06T15:10:21;3.50;;;1.60;;
19195;SDS011;9730;48.926;11.376;2022-07-06T15:12:49;2.78;;;1.40;;
19195;SDS011;9730;48.926;11.376;2022-07-06T15:15:15;4.20;;;1.30;;
19195;SDS011;9730;48.926;11.376;2022-07-06T15:17:42;4.00;;;1.98;;
19195;SDS011;9730;48.926;11.376;2022-07-06T15:20:09;2.60;;;2.10;;
19195;SDS011;9730;48.926;11.376;2022-07-06T15:25:03;3.30;;;1.90;;
19195;SDS011;9730;48.926;11.376;2022-07-06T15:27:30;3.42;;;1.75;;